Du har inga inställningar för hoppväder.nu

Hoppväder.nu

Senast uppdaterat 04:54

UTC-tid

2020-11-26 kl. 03:54


Sol och måne

Solen går upp 8:58 och går ner 13:49 (beräknade cirkatider)
Nästa fullmåne blir om 4 dagar (2020-11-30)

METAR

ESNS (Skellefteå)
(34 minuter sedan)
ESNS 260320Z AUTO 29013KT 9999 BKN017/// 01/M01 Q0997 REUP=



ESNU (Umeå)
(34 minuter sedan)
ESNU 260320Z 28004KT 240V320 9999 SCT014 OVC020 02/02 Q0999=



ESPA (Luleå)
(34 minuter sedan)
ESPA 260320Z AUTO 32016KT 9999 -UP BKN009/// BKN011/// OVC027/// M03/M04 Q0995=









TAF

ESNS (Skellefteå)
ESNS



ESNU (Umeå)
(84 minuter sedan)
ESNU 260230Z 2603/2612 24003KT CAVOK=



ESPA (Luleå)
ESPA





Kodnycklar till TAF och METAR






LHP

(Skellefteå är område se44b i Delområde 1)

Prognos är inte uppdaterad






Preliminär prognos